sensor_id;sensor_type;location;lat;lon;timestamp;temperature;humidity
19340;HTU21D;9804;52.350;6.684;2023-03-19T00:00:27;13.43;-6.00
19340;HTU21D;9804;52.350;6.684;2023-03-19T00:02:52;13.48;-6.00
19340;HTU21D;9804;52.350;6.684;2023-03-19T00:05:18;13.38;-6.00
19340;HTU21D;9804;52.350;6.684;2023-03-19T00:07:43;13.48;-6.00
19340;HTU21D;9804;52.350;6.684;2023-03-19T00:10:09;13.62;-6.00
19340;HTU21D;9804;52.350;6.684;2023-03-19T00:12:35;13.36;-6.00
19340;HTU21D;9804;52.350;6.684;2023-03-19T00:15:00;13.49;-6.00
19340;HTU21D;9804;52.350;6.684;2023-03-19T00:17:26;13.66;-6.00
19340;HTU21D;9804;52.350;6.684;2023-03-19T00:19:51;13.65;-6.00
19340;HTU21D;9804;52.350;6.684;2023-03-19T00:22:17;13.61;-6.00
19340;HTU21D;9804;52.350;6.684;2023-03-19T00:24:42;13.59;-6.00
19340;HTU21D;9804;52.350;6.684;2023-03-19T00:27:08;13.61;-6.00
19340;HTU21D;9804;52.350;6.684;2023-03-19T00:29:34;13.43;-6.00
19340;HTU21D;9804;52.350;6.684;2023-03-19T00:31:59;13.66;-6.00
19340;HTU21D;9804;52.350;6.684;2023-03-19T00:34:25;13.60;-6.00
19340;HTU21D;9804;52.350;6.684;2023-03-19T00:36:51;13.76;-6.00
19340;HTU21D;9804;52.350;6.684;2023-03-19T00:39:16;13.56;-6.00
19340;HTU21D;9804;52.350;6.684;2023-03-19T00:41:42;13.29;-6.00
19340;HTU21D;9804;52.350;6.684;2023-03-19T00:44:14;13.62;-6.00
19340;HTU21D;9804;52.350;6.684;2023-03-19T00:46:40;13.49;-6.00
19340;HTU21D;9804;52.350;6.684;2023-03-19T00:49:05;13.64;-6.00
19340;HTU21D;9804;52.350;6.684;2023-03-19T00:51:31;13.60;-6.00
19340;HTU21D;9804;52.350;6.684;2023-03-19T00:53:56;13.54;-6.00
19340;HTU21D;9804;52.350;6.684;2023-03-19T00:56:22;13.61;-6.00
19340;HTU21D;9804;52.350;6.684;2023-03-19T00:58:47;13.65;-6.00
19340;HTU21D;9804;52.350;6.684;2023-03-19T01:01:15;13.83;-6.00
19340;HTU21D;9804;52.350;6.684;2023-03-19T01:03:41;13.75;-6.00
19340;HTU21D;9804;52.350;6.684;2023-03-19T01:06:06;13.64;-6.00
19340;HTU21D;9804;52.350;6.684;2023-03-19T01:08:32;13.80;-6.00
19340;HTU21D;9804;52.350;6.684;2023-03-19T01:11:06;14.00;-6.00
19340;HTU21D;9804;52.350;6.684;2023-03-19T01:13:31;13.89;-6.00
19340;HTU21D;9804;52.350;6.684;2023-03-19T01:15:57;13.94;-6.00
19340;HTU21D;9804;52.350;6.684;2023-03-19T01:18:22;14.00;-6.00
19340;HTU21D;9804;52.350;6.684;2023-03-19T01:20:47;13.85;-6.00
19340;HTU21D;9804;52.350;6.684;2023-03-19T01:23:13;13.91;-6.00
19340;HTU21D;9804;52.350;6.684;2023-03-19T01:25:38;13.82;-6.00
19340;HTU21D;9804;52.350;6.684;2023-03-19T01:28:04;13.97;-6.00
19340;HTU21D;9804;52.350;6.684;2023-03-19T01:30:30;13.88;-6.00
19340;HTU21D;9804;52.350;6.684;2023-03-19T01:32:55;13.96;-6.00
19340;HTU21D;9804;52.350;6.684;2023-03-19T01:35:20;13.88;-6.00
19340;HTU21D;9804;52.350;6.684;2023-03-19T01:37:46;13.94;-6.00
19340;HTU21D;9804;52.350;6.684;2023-03-19T01:40:13;13.93;-6.00
19340;HTU21D;9804;52.350;6.684;2023-03-19T01:42:53;13.98;-6.00
19340;HTU21D;9804;52.350;6.684;2023-03-19T01:45:36;14.00;-6.00
19340;HTU21D;9804;52.350;6.684;2023-03-19T01:48:02;13.89;-6.00
19340;HTU21D;9804;52.350;6.684;2023-03-19T01:50:40;14.14;-6.00
19340;HTU21D;9804;52.350;6.684;2023-03-19T01:53:08;13.97;-6.00
19340;HTU21D;9804;52.350;6.684;2023-03-19T01:55:35;13.98;-6.00
19340;HTU21D;9804;52.350;6.684;2023-03-19T01:58:01;13.93;-6.00
19340;HTU21D;9804;52.350;6.684;2023-03-19T02:00:28;13.90;-6.00
19340;HTU21D;9804;52.350;6.684;2023-03-19T02:02:58;13.86;-6.00
19340;HTU21D;9804;52.350;6.684;2023-03-19T02:05:25;13.73;-6.00
19340;HTU21D;9804;52.350;6.684;2023-03-19T02:07:53;13.65;-6.00
19340;HTU21D;9804;52.350;6.684;2023-03-19T02:10:20;13.79;-6.00
19340;HTU21D;9804;52.350;6.684;2023-03-19T02:12:47;13.90;-6.00
19340;HTU21D;9804;52.350;6.684;2023-03-19T02:15:12;13.85;-6.00
19340;HTU21D;9804;52.350;6.684;2023-03-19T02:17:39;13.83;-6.00
19340;HTU21D;9804;52.350;6.684;2023-03-19T02:20:34;13.78;-6.00
19340;HTU21D;9804;52.350;6.684;2023-03-19T02:26:25;13.82;-6.00
19340;HTU21D;9804;52.350;6.684;2023-03-19T02:28:50;13.79;-6.00
19340;HTU21D;9804;52.350;6.684;2023-03-19T02:31:17;13.66;-6.00
19340;HTU21D;9804;52.350;6.684;2023-03-19T02:33:43;13.68;-6.00
19340;HTU21D;9804;52.350;6.684;2023-03-19T02:36:18;13.60;-6.00
19340;HTU21D;9804;52.350;6.684;2023-03-19T02:38:45;13.53;-6.00
19340;HTU21D;9804;52.350;6.684;2023-03-19T02:41:12;13.26;-6.00
19340;HTU21D;9804;52.350;6.684;2023-03-19T02:43:40;13.38;-6.00
19340;HTU21D;9804;52.350;6.684;2023-03-19T02:46:09;13.37;-6.00
19340;HTU21D;9804;52.350;6.684;2023-03-19T02:48:36;13.33;-6.00
19340;HTU21D;9804;52.350;6.684;2023-03-19T02:51:02;13.35;-6.00
19340;HTU21D;9804;52.350;6.684;2023-03-19T02:53:28;13.38;-6.00
19340;HTU21D;9804;52.350;6.684;2023-03-19T02:55:53;13.40;-6.00
19340;HTU21D;9804;52.350;6.684;2023-03-19T02:58:19;13.22;-6.00
19340;HTU21D;9804;52.350;6.684;2023-03-19T03:00:45;13.30;-6.00
19340;HTU21D;9804;52.350;6.684;2023-03-19T03:03:11;13.15;-6.00
19340;HTU21D;9804;52.350;6.684;2023-03-19T03:05:36;13.38;-6.00
19340;HTU21D;9804;52.350;6.684;2023-03-19T03:08:02;13.18;-6.00
19340;HTU21D;9804;52.350;6.684;2023-03-19T03:10:30;13.30;-6.00
19340;HTU21D;9804;52.350;6.684;2023-03-19T03:12:56;13.40;-6.00
19340;HTU21D;9804;52.350;6.684;2023-03-19T03:15:21;13.55;-6.00
19340;HTU21D;9804;52.350;6.684;2023-03-19T03:17:46;13.39;-6.00
19340;HTU21D;9804;52.350;6.684;2023-03-19T03:20:13;13.31;-6.00
19340;HTU21D;9804;52.350;6.684;2023-03-19T03:22:40;13.45;-6.00
19340;HTU21D;9804;52.350;6.684;2023-03-19T03:25:06;13.45;-6.00
19340;HTU21D;9804;52.350;6.684;2023-03-19T03:27:33;13.50;-6.00
19340;HTU21D;9804;52.350;6.684;2023-03-19T03:29:58;13.39;-6.00
19340;HTU21D;9804;52.350;6.684;2023-03-19T03:32:24;13.27;-6.00
19340;HTU21D;9804;52.350;6.684;2023-03-19T03:34:49;13.34;-6.00
19340;HTU21D;9804;52.350;6.684;2023-03-19T03:37:15;13.17;-6.00
19340;HTU21D;9804;52.350;6.684;2023-03-19T03:39:41;13.47;-6.00
19340;HTU21D;9804;52.350;6.684;2023-03-19T03:42:07;13.41;-6.00
19340;HTU21D;9804;52.350;6.684;2023-03-19T03:44:32;13.44;-6.00
19340;HTU21D;9804;52.350;6.684;2023-03-19T03:46:58;13.43;-6.00
19340;HTU21D;9804;52.350;6.684;2023-03-19T03:49:23;13.47;-6.00
19340;HTU21D;9804;52.350;6.684;2023-03-19T03:51:49;13.56;-6.00
19340;HTU21D;9804;52.350;6.684;2023-03-19T03:54:14;13.50;-6.00
19340;HTU21D;9804;52.350;6.684;2023-03-19T03:56:40;13.50;-6.00
19340;HTU21D;9804;52.350;6.684;2023-03-19T03:59:06;13.61;-6.00
19340;HTU21D;9804;52.350;6.684;2023-03-19T04:01:32;13.38;-6.00
19340;HTU21D;9804;52.350;6.684;2023-03-19T04:03:58;13.44;-6.00
19340;HTU21D;9804;52.350;6.684;2023-03-19T04:06:24;13.53;-6.00
19340;HTU21D;9804;52.350;6.684;2023-03-19T04:08:51;13.60;-6.00
19340;HTU21D;9804;52.350;6.684;2023-03-19T04:11:16;13.60;-6.00
19340;HTU21D;9804;52.350;6.684;2023-03-19T04:13:42;13.55;-6.00
19340;HTU21D;9804;52.350;6.684;2023-03-19T04:16:08;13.62;-6.00
19340;HTU21D;9804;52.350;6.684;2023-03-19T04:18:35;13.47;-6.00
19340;HTU21D;9804;52.350;6.684;2023-03-19T04:21:04;13.51;-6.00
19340;HTU21D;9804;52.350;6.684;2023-03-19T04:23:29;13.55;-6.00
19340;HTU21D;9804;52.350;6.684;2023-03-19T04:26:03;13.51;-6.00
19340;HTU21D;9804;52.350;6.684;2023-03-19T04:28:29;13.55;-6.00
19340;HTU21D;9804;52.350;6.684;2023-03-19T04:31:03;13.48;-6.00
19340;HTU21D;9804;52.350;6.684;2023-03-19T04:33:29;13.34;-6.00
19340;HTU21D;9804;52.350;6.684;2023-03-19T04:35:55;13.18;-6.00
19340;HTU21D;9804;52.350;6.684;2023-03-19T04:38:22;13.33;-6.00
19340;HTU21D;9804;52.350;6.684;2023-03-19T04:40:48;13.52;-6.00
19340;HTU21D;9804;52.350;6.684;2023-03-19T04:43:14;13.64;-6.00
19340;HTU21D;9804;52.350;6.684;2023-03-19T04:45:40;13.68;-6.00
19340;HTU21D;9804;52.350;6.684;2023-03-19T04:48:05;13.56;-6.00
19340;HTU21D;9804;52.350;6.684;2023-03-19T04:50:31;13.67;-6.00
19340;HTU21D;9804;52.350;6.684;2023-03-19T04:52:56;13.73;-6.00
19340;HTU21D;9804;52.350;6.684;2023-03-19T04:55:22;13.65;-6.00
19340;HTU21D;9804;52.350;6.684;2023-03-19T04:57:47;13.62;-6.00
19340;HTU21D;9804;52.350;6.684;2023-03-19T05:00:13;13.61;-6.00
19340;HTU21D;9804;52.350;6.684;2023-03-19T05:02:40;13.52;-6.00
19340;HTU21D;9804;52.350;6.684;2023-03-19T05:05:07;13.30;-6.00
19340;HTU21D;9804;52.350;6.684;2023-03-19T05:07:33;13.26;-6.00
19340;HTU21D;9804;52.350;6.684;2023-03-19T05:09:58;13.11;-6.00
19340;HTU21D;9804;52.350;6.684;2023-03-19T05:12:24;13.23;-6.00
19340;HTU21D;9804;52.350;6.684;2023-03-19T05:14:50;13.31;-6.00
19340;HTU21D;9804;52.350;6.684;2023-03-19T05:17:15;13.20;-6.00
19340;HTU21D;9804;52.350;6.684;2023-03-19T05:19:41;13.36;-6.00
19340;HTU21D;9804;52.350;6.684;2023-03-19T05:22:07;13.31;-6.00
19340;HTU21D;9804;52.350;6.684;2023-03-19T05:24:33;13.27;-6.00
19340;HTU21D;9804;52.350;6.684;2023-03-19T05:26:58;13.38;-6.00
19340;HTU21D;9804;52.350;6.684;2023-03-19T05:29:24;13.23;-6.00
19340;HTU21D;9804;52.350;6.684;2023-03-19T05:31:50;13.08;-6.00
19340;HTU21D;9804;52.350;6.684;2023-03-19T05:34:16;13.10;-6.00
19340;HTU21D;9804;52.350;6.684;2023-03-19T05:36:41;12.99;-6.00
19340;HTU21D;9804;52.350;6.684;2023-03-19T05:39:06;13.11;-6.00
19340;HTU21D;9804;52.350;6.684;2023-03-19T05:41:32;13.23;-6.00
19340;HTU21D;9804;52.350;6.684;2023-03-19T05:43:57;13.18;-6.00
19340;HTU21D;9804;52.350;6.684;2023-03-19T05:46:23;13.18;-6.00
19340;HTU21D;9804;52.350;6.684;2023-03-19T05:48:49;13.16;-6.00
19340;HTU21D;9804;52.350;6.684;2023-03-19T05:51:14;13.22;-6.00
19340;HTU21D;9804;52.350;6.684;2023-03-19T05:53:39;13.05;-6.00
19340;HTU21D;9804;52.350;6.684;2023-03-19T05:56:05;12.94;-6.00
19340;HTU21D;9804;52.350;6.684;2023-03-19T05:58:30;12.97;-6.00
19340;HTU21D;9804;52.350;6.684;2023-03-19T06:00:56;12.72;-6.00
19340;HTU21D;9804;52.350;6.684;2023-03-19T06:03:22;13.06;-6.00
19340;HTU21D;9804;52.350;6.684;2023-03-19T06:05:49;12.96;-6.00
19340;HTU21D;9804;52.350;6.684;2023-03-19T06:08:15;12.76;-6.00
19340;HTU21D;9804;52.350;6.684;2023-03-19T06:10:40;12.99;-6.00
19340;HTU21D;9804;52.350;6.684;2023-03-19T06:13:06;12.99;-6.00
19340;HTU21D;9804;52.350;6.684;2023-03-19T06:15:31;12.96;-6.00
19340;HTU21D;9804;52.350;6.684;2023-03-19T06:17:57;12.92;-6.00
19340;HTU21D;9804;52.350;6.684;2023-03-19T06:20:22;13.00;-6.00
19340;HTU21D;9804;52.350;6.684;2023-03-19T06:22:48;13.11;-6.00
19340;HTU21D;9804;52.350;6.684;2023-03-19T06:25:13;12.92;-6.00
19340;HTU21D;9804;52.350;6.684;2023-03-19T06:27:38;13.14;-6.00
19340;HTU21D;9804;52.350;6.684;2023-03-19T06:30:04;13.20;-6.00
19340;HTU21D;9804;52.350;6.684;2023-03-19T06:32:30;13.08;-6.00
19340;HTU21D;9804;52.350;6.684;2023-03-19T06:34:55;13.03;-6.00
19340;HTU21D;9804;52.350;6.684;2023-03-19T06:37:21;12.88;-6.00
19340;HTU21D;9804;52.350;6.684;2023-03-19T06:39:46;12.93;-6.00
19340;HTU21D;9804;52.350;6.684;2023-03-19T06:42:12;13.05;-6.00
19340;HTU21D;9804;52.350;6.684;2023-03-19T06:44:38;12.94;-6.00
19340;HTU21D;9804;52.350;6.684;2023-03-19T06:47:03;12.87;-6.00
19340;HTU21D;9804;52.350;6.684;2023-03-19T06:49:29;12.74;-6.00
19340;HTU21D;9804;52.350;6.684;2023-03-19T06:51:54;12.79;-6.00
19340;HTU21D;9804;52.350;6.684;2023-03-19T06:54:20;12.81;-6.00
19340;HTU21D;9804;52.350;6.684;2023-03-19T06:56:45;12.99;-6.00
19340;HTU21D;9804;52.350;6.684;2023-03-19T06:59:11;13.23;-6.00
19340;HTU21D;9804;52.350;6.684;2023-03-19T07:01:39;13.27;-6.00
19340;HTU21D;9804;52.350;6.684;2023-03-19T07:04:04;13.01;-6.00
19340;HTU21D;9804;52.350;6.684;2023-03-19T07:06:30;13.06;-6.00
19340;HTU21D;9804;52.350;6.684;2023-03-19T07:08:55;13.12;-6.00
19340;HTU21D;9804;52.350;6.684;2023-03-19T07:11:21;12.91;-6.00
19340;HTU21D;9804;52.350;6.684;2023-03-19T07:13:46;13.21;-6.00
19340;HTU21D;9804;52.350;6.684;2023-03-19T07:16:12;13.32;-6.00
19340;HTU21D;9804;52.350;6.684;2023-03-19T07:18:37;13.22;-6.00
19340;HTU21D;9804;52.350;6.684;2023-03-19T07:21:03;13.52;-6.00
19340;HTU21D;9804;52.350;6.684;2023-03-19T07:23:28;13.47;-6.00
19340;HTU21D;9804;52.350;6.684;2023-03-19T07:25:54;13.37;-6.00
19340;HTU21D;9804;52.350;6.684;2023-03-19T07:28:19;13.58;-6.00
19340;HTU21D;9804;52.350;6.684;2023-03-19T07:30:46;13.48;-6.00
19340;HTU21D;9804;52.350;6.684;2023-03-19T07:33:11;13.54;-6.00
19340;HTU21D;9804;52.350;6.684;2023-03-19T07:35:37;13.52;-6.00
19340;HTU21D;9804;52.350;6.684;2023-03-19T07:38:02;13.44;-6.00
19340;HTU21D;9804;52.350;6.684;2023-03-19T07:40:28;13.66;-6.00
19340;HTU21D;9804;52.350;6.684;2023-03-19T07:42:53;13.64;-6.00
19340;HTU21D;9804;52.350;6.684;2023-03-19T07:45:19;13.48;-6.00
19340;HTU21D;9804;52.350;6.684;2023-03-19T07:47:44;13.77;-6.00
19340;HTU21D;9804;52.350;6.684;2023-03-19T07:50:11;13.60;-6.00
19340;HTU21D;9804;52.350;6.684;2023-03-19T07:52:37;13.64;-6.00
19340;HTU21D;9804;52.350;6.684;2023-03-19T07:55:02;13.65;-6.00
19340;HTU21D;9804;52.350;6.684;2023-03-19T07:57:28;13.84;-6.00
19340;HTU21D;9804;52.350;6.684;2023-03-19T07:59:53;13.91;-6.00
19340;HTU21D;9804;52.350;6.684;2023-03-19T08:02:18;13.99;-6.00
19340;HTU21D;9804;52.350;6.684;2023-03-19T08:04:44;14.33;-6.00
19340;HTU21D;9804;52.350;6.684;2023-03-19T08:07:10;14.20;-6.00
19340;HTU21D;9804;52.350;6.684;2023-03-19T08:09:37;13.88;-6.00
19340;HTU21D;9804;52.350;6.684;2023-03-19T08:12:04;13.98;-6.00
19340;HTU21D;9804;52.350;6.684;2023-03-19T08:14:31;14.07;-6.00
19340;HTU21D;9804;52.350;6.684;2023-03-19T08:16:56;14.10;-6.00
19340;HTU21D;9804;52.350;6.684;2023-03-19T08:19:21;14.11;-6.00
19340;HTU21D;9804;52.350;6.684;2023-03-19T08:21:47;14.07;-6.00
19340;HTU21D;9804;52.350;6.684;2023-03-19T08:24:12;14.00;-6.00
19340;HTU21D;9804;52.350;6.684;2023-03-19T08:26:38;14.15;-6.00
19340;HTU21D;9804;52.350;6.684;2023-03-19T08:29:03;14.34;-6.00
19340;HTU21D;9804;52.350;6.684;2023-03-19T08:31:29;14.47;-6.00
19340;HTU21D;9804;52.350;6.684;2023-03-19T08:33:54;14.26;-6.00
19340;HTU21D;9804;52.350;6.684;2023-03-19T08:36:20;14.55;-6.00
19340;HTU21D;9804;52.350;6.684;2023-03-19T08:38:46;14.54;-6.00
19340;HTU21D;9804;52.350;6.684;2023-03-19T08:41:11;14.53;-6.00
19340;HTU21D;9804;52.350;6.684;2023-03-19T08:43:37;14.74;-6.00
19340;HTU21D;9804;52.350;6.684;2023-03-19T08:46:03;14.58;-6.00
19340;HTU21D;9804;52.350;6.684;2023-03-19T08:48:29;14.80;-6.00
19340;HTU21D;9804;52.350;6.684;2023-03-19T08:50:56;14.63;-6.00
19340;HTU21D;9804;52.350;6.684;2023-03-19T08:53:22;14.42;-6.00
19340;HTU21D;9804;52.350;6.684;2023-03-19T08:55:56;14.68;-6.00
19340;HTU21D;9804;52.350;6.684;2023-03-19T08:58:22;14.82;-6.00
19340;HTU21D;9804;52.350;6.684;2023-03-19T09:00:48;14.81;-6.00
19340;HTU21D;9804;52.350;6.684;2023-03-19T09:03:15;14.63;-6.00
19340;HTU21D;9804;52.350;6.684;2023-03-19T09:05:41;14.81;-6.00
19340;HTU21D;9804;52.350;6.684;2023-03-19T09:08:07;14.82;-6.00
19340;HTU21D;9804;52.350;6.684;2023-03-19T09:10:32;14.72;-6.00
19340;HTU21D;9804;52.350;6.684;2023-03-19T09:12:58;14.86;-6.00
19340;HTU21D;9804;52.350;6.684;2023-03-19T09:15:24;15.14;-6.00
19340;HTU21D;9804;52.350;6.684;2023-03-19T09:17:49;14.97;-6.00
19340;HTU21D;9804;52.350;6.684;2023-03-19T09:20:15;15.10;-6.00
19340;HTU21D;9804;52.350;6.684;2023-03-19T09:22:41;15.04;-6.00
19340;HTU21D;9804;52.350;6.684;2023-03-19T09:25:06;15.43;-6.00
19340;HTU21D;9804;52.350;6.684;2023-03-19T09:27:32;15.39;-6.00
19340;HTU21D;9804;52.350;6.684;2023-03-19T09:29:58;15.19;-6.00
19340;HTU21D;9804;52.350;6.684;2023-03-19T09:32:23;15.19;-6.00
19340;HTU21D;9804;52.350;6.684;2023-03-19T09:34:49;15.37;-6.00
19340;HTU21D;9804;52.350;6.684;2023-03-19T09:37:14;15.42;-6.00
19340;HTU21D;9804;52.350;6.684;2023-03-19T09:39:40;15.45;-6.00
19340;HTU21D;9804;52.350;6.684;2023-03-19T09:42:15;15.45;-6.00
19340;HTU21D;9804;52.350;6.684;2023-03-19T09:44:44;15.53;-6.00
19340;HTU21D;9804;52.350;6.684;2023-03-19T09:47:32;15.60;-6.00
19340;HTU21D;9804;52.350;6.684;2023-03-19T09:50:04;15.48;-6.00
19340;HTU21D;9804;52.350;6.684;2023-03-19T09:52:40;15.66;-6.00
19340;HTU21D;9804;52.350;6.684;2023-03-19T09:57:45;15.93;-6.00
19340;HTU21D;9804;52.350;6.684;2023-03-19T10:00:22;15.58;-6.00
19340;HTU21D;9804;52.350;6.684;2023-03-19T10:08:50;15.49;-6.00
19340;HTU21D;9804;52.350;6.684;2023-03-19T10:16:54;15.80;-6.00
19340;HTU21D;9804;52.350;6.684;2023-03-19T10:19:24;15.56;-6.00
19340;HTU21D;9804;52.350;6.684;2023-03-19T10:21:58;15.78;-6.00
19340;HTU21D;9804;52.350;6.684;2023-03-19T10:24:29;15.59;-6.00
19340;HTU21D;9804;52.350;6.684;2023-03-19T10:27:20;15.77;-6.00
19340;HTU21D;9804;52.350;6.684;2023-03-19T10:29:45;16.07;-6.00
19340;HTU21D;9804;52.350;6.684;2023-03-19T10:32:37;16.45;-6.00
19340;HTU21D;9804;52.350;6.684;2023-03-19T10:35:11;15.87;-6.00
19340;HTU21D;9804;52.350;6.684;2023-03-19T10:37:40;16.05;-6.00
19340;HTU21D;9804;52.350;6.684;2023-03-19T10:40:16;15.66;-6.00
19340;HTU21D;9804;52.350;6.684;2023-03-19T10:43:11;15.42;-6.00
19340;HTU21D;9804;52.350;6.684;2023-03-19T10:45:37;15.73;-6.00
19340;HTU21D;9804;52.350;6.684;2023-03-19T10:48:04;15.84;-6.00
19340;HTU21D;9804;52.350;6.684;2023-03-19T10:50:52;16.00;-6.00
19340;HTU21D;9804;52.350;6.684;2023-03-19T10:53:31;16.39;-6.00
19340;HTU21D;9804;52.350;6.684;2023-03-19T10:56:19;16.29;-6.00
19340;HTU21D;9804;52.350;6.684;2023-03-19T10:59:19;16.42;-6.00
19340;HTU21D;9804;52.350;6.684;2023-03-19T11:01:45;16.42;-6.00
19340;HTU21D;9804;52.350;6.684;2023-03-19T11:04:18;16.32;-6.00
19340;HTU21D;9804;52.350;6.684;2023-03-19T11:06:51;16.14;-6.00
19340;HTU21D;9804;52.350;6.684;2023-03-19T11:09:35;16.21;-6.00
19340;HTU21D;9804;52.350;6.684;2023-03-19T11:12:21;16.08;-6.00
19340;HTU21D;9804;52.350;6.684;2023-03-19T11:14:58;16.06;-6.00
19340;HTU21D;9804;52.350;6.684;2023-03-19T11:17:36;16.27;-6.00
19340;HTU21D;9804;52.350;6.684;2023-03-19T11:20:21;16.63;-6.00
19340;HTU21D;9804;52.350;6.684;2023-03-19T11:22:50;17.10;-6.00
19340;HTU21D;9804;52.350;6.684;2023-03-19T11:25:17;17.46;-6.00
19340;HTU21D;9804;52.350;6.684;2023-03-19T11:27:56;17.07;-6.00
19340;HTU21D;9804;52.350;6.684;2023-03-19T11:30:22;17.21;-6.00
19340;HTU21D;9804;52.350;6.684;2023-03-19T11:33:17;17.40;-6.00
19340;HTU21D;9804;52.350;6.684;2023-03-19T11:35:52;17.34;-6.00
19340;HTU21D;9804;52.350;6.684;2023-03-19T11:38:52;17.69;-6.00
19340;HTU21D;9804;52.350;6.684;2023-03-19T11:47:50;17.48;-6.00
19340;HTU21D;9804;52.350;6.684;2023-03-19T11:52:31;17.30;-6.00
19340;HTU21D;9804;52.350;6.684;2023-03-19T11:55:07;17.25;-6.00
19340;HTU21D;9804;52.350;6.684;2023-03-19T12:00:50;17.25;-6.00
19340;HTU21D;9804;52.350;6.684;2023-03-19T12:05:59;17.66;-6.00
19340;HTU21D;9804;52.350;6.684;2023-03-19T12:16:43;18.78;-6.00
19340;HTU21D;9804;52.350;6.684;2023-03-19T12:19:27;18.65;-6.00
19340;HTU21D;9804;52.350;6.684;2023-03-19T12:22:11;18.57;-6.00
19340;HTU21D;9804;52.350;6.684;2023-03-19T12:27:34;18.86;-6.00
19340;HTU21D;9804;52.350;6.684;2023-03-19T12:32:51;18.29;-6.00
19340;HTU21D;9804;52.350;6.684;2023-03-19T12:35:26;18.23;-6.00
19340;HTU21D;9804;52.350;6.684;2023-03-19T12:38:24;18.39;-6.00
19340;HTU21D;9804;52.350;6.684;2023-03-19T12:40:59;18.35;-6.00
19340;HTU21D;9804;52.350;6.684;2023-03-19T12:43:36;18.28;-6.00
19340;HTU21D;9804;52.350;6.684;2023-03-19T12:46:12;18.79;-6.00
19340;HTU21D;9804;52.350;6.684;2023-03-19T12:49:28;19.11;-6.00
19340;HTU21D;9804;52.350;6.684;2023-03-19T12:51:34;19.44;-6.00
19340;HTU21D;9804;52.350;6.684;2023-03-19T12:54:35;18.84;-6.00
19340;HTU21D;9804;52.350;6.684;2023-03-19T12:57:11;19.56;-6.00
19340;HTU21D;9804;52.350;6.684;2023-03-19T12:59:52;19.17;-6.00
19340;HTU21D;9804;52.350;6.684;2023-03-19T13:02:43;19.06;-6.00
19340;HTU21D;9804;52.350;6.684;2023-03-19T13:10:34;19.56;-6.00
19340;HTU21D;9804;52.350;6.684;2023-03-19T13:13:50;19.36;-6.00
19340;HTU21D;9804;52.350;6.684;2023-03-19T13:15:52;19.65;-6.00
19340;HTU21D;9804;52.350;6.684;2023-03-19T13:24:22;19.67;-6.00
19340;HTU21D;9804;52.350;6.684;2023-03-19T13:26:50;19.51;-6.00
19340;HTU21D;9804;52.350;6.684;2023-03-19T13:29:25;19.61;-6.00
19340;HTU21D;9804;52.350;6.684;2023-03-19T13:31:52;19.84;-6.00
19340;HTU21D;9804;52.350;6.684;2023-03-19T13:34:25;20.11;-6.00
19340;HTU21D;9804;52.350;6.684;2023-03-19T13:37:00;19.82;-6.00
19340;HTU21D;9804;52.350;6.684;2023-03-19T13:39:30;19.18;-6.00
19340;HTU21D;9804;52.350;6.684;2023-03-19T13:44:48;19.52;-6.00
19340;HTU21D;9804;52.350;6.684;2023-03-19T13:55:28;19.76;-6.00
19340;HTU21D;9804;52.350;6.684;2023-03-19T13:58:25;19.51;-6.00
19340;HTU21D;9804;52.350;6.684;2023-03-19T14:01:11;19.81;-6.00
19340;HTU21D;9804;52.350;6.684;2023-03-19T14:03:57;19.85;-6.00
19340;HTU21D;9804;52.350;6.684;2023-03-19T14:09:01;19.12;-6.00
19340;HTU21D;9804;52.350;6.684;2023-03-19T14:11:32;19.01;-6.00
19340;HTU21D;9804;52.350;6.684;2023-03-19T14:14:02;19.27;-6.00
19340;HTU21D;9804;52.350;6.684;2023-03-19T14:16:32;19.33;-6.00
19340;HTU21D;9804;52.350;6.684;2023-03-19T14:19:01;18.94;-6.00
19340;HTU21D;9804;52.350;6.684;2023-03-19T14:21:40;18.38;-6.00
19340;HTU21D;9804;52.350;6.684;2023-03-19T14:27:01;18.55;-6.00
19340;HTU21D;9804;52.350;6.684;2023-03-19T14:29:27;18.61;-6.00
19340;HTU21D;9804;52.350;6.684;2023-03-19T14:31:56;18.67;-6.00
19340;HTU21D;9804;52.350;6.684;2023-03-19T14:34:32;18.30;-6.00
19340;HTU21D;9804;52.350;6.684;2023-03-19T14:39:31;18.49;-6.00
19340;HTU21D;9804;52.350;6.684;2023-03-19T14:42:04;18.44;-6.00
19340;HTU21D;9804;52.350;6.684;2023-03-19T14:50:40;18.04;-6.00
19340;HTU21D;9804;52.350;6.684;2023-03-19T14:55:40;18.37;-6.00
19340;HTU21D;9804;52.350;6.684;2023-03-19T14:58:10;18.14;-6.00
19340;HTU21D;9804;52.350;6.684;2023-03-19T15:00:48;18.34;-6.00
19340;HTU21D;9804;52.350;6.684;2023-03-19T15:03:21;18.20;-6.00
19340;HTU21D;9804;52.350;6.684;2023-03-19T15:05:47;18.35;-6.00
19340;HTU21D;9804;52.350;6.684;2023-03-19T15:08:16;18.23;-6.00
19340;HTU21D;9804;52.350;6.684;2023-03-19T15:11:05;18.23;-6.00
19340;HTU21D;9804;52.350;6.684;2023-03-19T15:13:50;17.78;-6.00
19340;HTU21D;9804;52.350;6.684;2023-03-19T15:19:10;17.87;-6.00
19340;HTU21D;9804;52.350;6.684;2023-03-19T15:21:36;17.56;-6.00
19340;HTU21D;9804;52.350;6.684;2023-03-19T15:24:02;16.82;-6.00
19340;HTU21D;9804;52.350;6.684;2023-03-19T15:26:30;16.66;-6.00
19340;HTU21D;9804;52.350;6.684;2023-03-19T15:28:56;16.86;-6.00
19340;HTU21D;9804;52.350;6.684;2023-03-19T15:31:22;16.79;-6.00
19340;HTU21D;9804;52.350;6.684;2023-03-19T15:33:48;16.66;-6.00
19340;HTU21D;9804;52.350;6.684;2023-03-19T15:36:27;16.51;-6.00
19340;HTU21D;9804;52.350;6.684;2023-03-19T15:38:59;16.43;-6.00
19340;HTU21D;9804;52.350;6.684;2023-03-19T15:41:29;16.76;-6.00
19340;HTU21D;9804;52.350;6.684;2023-03-19T15:43:55;16.43;-6.00
19340;HTU21D;9804;52.350;6.684;2023-03-19T15:46:25;17.17;-6.00
19340;HTU21D;9804;52.350;6.684;2023-03-19T15:49:13;16.74;-6.00
19340;HTU21D;9804;52.350;6.684;2023-03-19T15:51:41;16.50;-6.00
19340;HTU21D;9804;52.350;6.684;2023-03-19T15:54:08;16.45;-6.00
19340;HTU21D;9804;52.350;6.684;2023-03-19T15:56:34;16.40;-6.00
19340;HTU21D;9804;52.350;6.684;2023-03-19T15:58:59;16.37;-6.00
19340;HTU21D;9804;52.350;6.684;2023-03-19T16:01:25;16.75;-6.00
19340;HTU21D;9804;52.350;6.684;2023-03-19T16:04:07;17.51;-6.00
19340;HTU21D;9804;52.350;6.684;2023-03-19T16:06:38;17.26;-6.00
19340;HTU21D;9804;52.350;6.684;2023-03-19T16:09:22;16.70;-6.00
19340;HTU21D;9804;52.350;6.684;2023-03-19T16:11:48;17.01;-6.00
19340;HTU21D;9804;52.350;6.684;2023-03-19T16:16:44;17.51;-6.00
19340;HTU21D;9804;52.350;6.684;2023-03-19T16:19:32;17.39;-6.00
19340;HTU21D;9804;52.350;6.684;2023-03-19T16:21:59;16.56;-6.00
19340;HTU21D;9804;52.350;6.684;2023-03-19T16:24:33;16.64;-6.00
19340;HTU21D;9804;52.350;6.684;2023-03-19T16:27:05;16.06;-6.00
19340;HTU21D;9804;52.350;6.684;2023-03-19T16:29:39;16.15;-6.00
19340;HTU21D;9804;52.350;6.684;2023-03-19T16:34:44;15.92;-6.00
19340;HTU21D;9804;52.350;6.684;2023-03-19T16:37:33;16.52;-6.00
19340;HTU21D;9804;52.350;6.684;2023-03-19T16:42:49;15.86;-6.00
19340;HTU21D;9804;52.350;6.684;2023-03-19T16:45:26;15.96;-6.00
19340;HTU21D;9804;52.350;6.684;2023-03-19T16:47:56;15.32;-6.00
19340;HTU21D;9804;52.350;6.684;2023-03-19T16:50:34;15.14;-6.00
19340;HTU21D;9804;52.350;6.684;2023-03-19T16:53:11;15.70;-6.00
19340;HTU21D;9804;52.350;6.684;2023-03-19T16:55:38;14.82;-6.00
19340;HTU21D;9804;52.350;6.684;2023-03-19T16:58:09;14.65;-6.00
19340;HTU21D;9804;52.350;6.684;2023-03-19T17:00:36;15.22;-6.00
19340;HTU21D;9804;52.350;6.684;2023-03-19T17:03:02;15.17;-6.00
19340;HTU21D;9804;52.350;6.684;2023-03-19T17:05:28;15.21;-6.00
19340;HTU21D;9804;52.350;6.684;2023-03-19T17:07:54;14.73;-6.00
19340;HTU21D;9804;52.350;6.684;2023-03-19T17:10:22;14.70;-6.00
19340;HTU21D;9804;52.350;6.684;2023-03-19T17:12:50;14.58;-6.00
19340;HTU21D;9804;52.350;6.684;2023-03-19T17:15:28;14.92;-6.00
19340;HTU21D;9804;52.350;6.684;2023-03-19T17:17:55;14.34;-6.00